createdAt,value
2022-09-24T00:02:21.177Z,100359.25
2022-09-24T00:04:53.572Z,100359.19
2022-09-24T00:07:23.348Z,100360.69
2022-09-24T00:09:55.163Z,100359.69
2022-09-24T00:12:26.624Z,100353.66
2022-09-24T00:14:58.194Z,100364.62
2022-09-24T00:17:27.922Z,100354.34
2022-09-24T00:19:58.815Z,100357.91
2022-09-24T00:22:29.265Z,100361.03
2022-09-24T00:25:19.039Z,100361.53
2022-09-24T00:27:48.293Z,100366.00
2022-09-24T00:30:20.857Z,100366.34
2022-09-24T00:33:12.875Z,100366.44
2022-09-24T00:35:45.027Z,100361.44
2022-09-24T00:38:16.165Z,100362.25
2022-09-24T00:40:47.742Z,100365.66
2022-09-24T00:43:36.229Z,100360.72
2022-09-24T00:46:33.864Z,100353.06
2022-09-24T00:49:15.559Z,100357.38
2022-09-24T00:51:53.513Z,100352.50
2022-09-24T00:54:27.406Z,100349.94
2022-09-24T00:57:01.074Z,100349.47
2022-09-24T00:59:31.687Z,100350.94
2022-09-24T01:02:03.816Z,100340.50
2022-09-24T01:04:33.341Z,100342.44
2022-09-24T01:07:03.910Z,100340.47
2022-09-24T01:09:32.789Z,100340.78
2022-09-24T01:12:29.003Z,100335.34
2022-09-24T01:15:12.658Z,100332.25
2022-09-24T01:17:49.199Z,100329.00
2022-09-24T01:20:48.534Z,100330.84
2022-09-24T01:23:31.424Z,100327.12
2022-09-24T01:26:19.976Z,100329.38
2022-09-24T01:29:17.712Z,100323.44
2022-09-24T01:31:51.526Z,100332.84
2022-09-24T01:34:27.937Z,100327.84
2022-09-24T01:37:00.075Z,100319.59
2022-09-24T01:39:32.964Z,100325.75
2022-09-24T01:42:04.018Z,100317.22
2022-09-24T01:44:38.277Z,100319.66
2022-09-24T01:47:10.261Z,100310.53
2022-09-24T01:49:43.095Z,100320.44
2022-09-24T01:52:17.706Z,100313.50
2022-09-24T01:54:52.926Z,100304.19
2022-09-24T01:57:27.201Z,100313.94
2022-09-24T02:00:19.639Z,100307.59
2022-09-24T02:03:14.091Z,100318.72
2022-09-24T02:05:53.058Z,100311.91
2022-09-24T02:08:25.001Z,100319.31
2022-09-24T02:11:09.097Z,100313.78
2022-09-24T02:13:57.216Z,100324.87
2022-09-24T02:16:34.017Z,100316.44
2022-09-24T02:19:06.890Z,100317.81
2022-09-24T02:21:39.876Z,100317.88
2022-09-24T02:24:13.037Z,100322.69
2022-09-24T02:26:44.789Z,100328.50
2022-09-24T02:29:14.776Z,100323.19
2022-09-24T02:31:50.242Z,100323.19
2022-09-24T02:34:24.030Z,100318.34
2022-09-24T02:37:07.079Z,100322.16
2022-09-24T02:39:36.772Z,100322.88
2022-09-24T02:42:11.164Z,100325.28
2022-09-24T02:44:41.584Z,100320.19
2022-09-24T02:47:12.031Z,100312.50
2022-09-24T02:49:41.611Z,100316.78
2022-09-24T02:52:14.297Z,100316.59
2022-09-24T02:54:43.703Z,100323.72
2022-09-24T02:57:14.225Z,100322.31
2022-09-24T02:59:43.401Z,100322.25
2022-09-24T03:02:15.716Z,100325.72
2022-09-24T03:04:45.269Z,100316.88
2022-09-24T03:07:16.403Z,100313.56
2022-09-24T03:09:46.608Z,100310.69
2022-09-24T03:12:19.585Z,100314.81
2022-09-24T03:14:50.089Z,100307.91
2022-09-24T03:17:21.370Z,100306.62
2022-09-24T03:19:51.190Z,100303.09
2022-09-24T03:22:22.301Z,100299.69
2022-09-24T03:24:51.800Z,100293.38
2022-09-24T03:27:22.305Z,100287.72
2022-09-24T03:30:10.197Z,100289.97
2022-09-24T03:32:42.184Z,100290.19
2022-09-24T03:35:12.074Z,100287.56
2022-09-24T03:37:48.367Z,100292.91
2022-09-24T03:40:18.447Z,100292.03
2022-09-24T03:42:50.162Z,100292.88
2022-09-24T03:45:20.990Z,100300.81
2022-09-24T03:47:53.580Z,100282.50
2022-09-24T03:50:24.237Z,100282.38
2022-09-24T03:52:56.162Z,100281.63
2022-09-24T03:55:25.201Z,100275.63
2022-09-24T03:57:56.315Z,100285.38
2022-09-24T04:00:25.604Z,100274.44
2022-09-24T04:02:55.915Z,100282.75
2022-09-24T04:05:26.323Z,100278.34
2022-09-24T04:07:59.478Z,100272.19
2022-09-24T04:10:30.028Z,100275.19
2022-09-24T04:13:02.093Z,100271.88
2022-09-24T04:15:33.247Z,100282.59
2022-09-24T04:18:04.226Z,100288.06
2022-09-24T04:20:36.043Z,100278.28
2022-09-24T04:23:05.631Z,100276.56
2022-09-24T04:25:35.085Z,100279.38
2022-09-24T04:28:07.507Z,100279.28
2022-09-24T04:30:37.417Z,100277.34
2022-09-24T04:33:09.499Z,100281.41
2022-09-24T04:35:39.188Z,100289.72
2022-09-24T04:38:09.693Z,100284.13
2022-09-24T04:40:40.744Z,100288.72
2022-09-24T04:43:13.203Z,100286.81
2022-09-24T04:45:45.954Z,100272.91
2022-09-24T04:48:17.951Z,100280.50
2022-09-24T04:50:46.700Z,100286.62
2022-09-24T04:53:16.730Z,100291.69
2022-09-24T04:55:47.975Z,100290.31
2022-09-24T04:58:21.668Z,100294.00
2022-09-24T05:00:53.955Z,100287.03
2022-09-24T05:03:23.595Z,100292.22
2022-09-24T05:05:56.240Z,100290.31
2022-09-24T05:08:25.983Z,100287.50
2022-09-24T05:10:56.681Z,100279.75
2022-09-24T05:13:29.024Z,100270.84
2022-09-24T05:16:01.511Z,100268.53
2022-09-24T05:18:31.360Z,100267.06
2022-09-24T05:21:05.205Z,100266.88
2022-09-24T05:23:34.056Z,100271.16
2022-09-24T05:26:22.441Z,100279.09
2022-09-24T05:28:53.594Z,100272.91
2022-09-24T05:31:25.250Z,100277.13
2022-09-24T05:33:56.961Z,100274.59
2022-09-24T05:36:29.649Z,100275.19
2022-09-24T05:39:00.315Z,100275.03
2022-09-24T05:41:33.047Z,100268.75
2022-09-24T05:44:08.000Z,100270.19
2022-09-24T05:46:39.480Z,100270.97
2022-09-24T05:49:11.722Z,100277.03
2022-09-24T05:51:43.925Z,100275.81
2022-09-24T05:54:13.257Z,100278.28
2022-09-24T05:56:47.641Z,100281.16
2022-09-24T05:59:16.510Z,100277.31
2022-09-24T06:01:45.889Z,100280.87
2022-09-24T06:04:18.723Z,100293.72
2022-09-24T06:06:48.495Z,100298.03
2022-09-24T06:09:19.342Z,100294.72
2022-09-24T06:11:52.945Z,100289.00
2022-09-24T06:14:23.828Z,100284.22
2022-09-24T06:16:53.797Z,100285.97
2022-09-24T06:19:25.345Z,100287.28
2022-09-24T06:21:55.361Z,100291.59
2022-09-24T06:24:24.324Z,100287.75
2022-09-24T06:26:53.353Z,100296.44
2022-09-24T06:29:22.248Z,100294.25
2022-09-24T06:31:54.339Z,100295.81
2022-09-24T06:34:28.041Z,100291.34
2022-09-24T06:37:02.399Z,100298.22
2022-09-24T06:39:31.888Z,100303.91
2022-09-24T06:42:03.858Z,100300.59
2022-09-24T06:44:37.303Z,100301.03
2022-09-24T06:47:07.521Z,100294.00
2022-09-24T06:49:36.708Z,100289.25
2022-09-24T06:52:06.569Z,100289.50
2022-09-24T06:54:37.393Z,100289.81
2022-09-24T06:57:08.288Z,100295.66
2022-09-24T06:59:38.526Z,100291.53
2022-09-24T07:02:10.572Z,100290.19
2022-09-24T07:04:41.646Z,100292.38
2022-09-24T07:07:29.904Z,100292.75
2022-09-24T07:10:05.786Z,100298.47
2022-09-24T07:12:37.595Z,100300.97
2022-09-24T07:15:10.378Z,100311.81
2022-09-24T07:17:39.517Z,100307.28
2022-09-24T07:20:09.950Z,100310.47
2022-09-24T07:22:41.544Z,100312.84
2022-09-24T07:25:12.939Z,100319.75
2022-09-24T07:27:43.170Z,100311.53
2022-09-24T07:30:13.511Z,100317.41
2022-09-24T07:32:44.502Z,100313.53
2022-09-24T07:35:15.092Z,100317.72
2022-09-24T07:37:45.798Z,100321.84
2022-09-24T07:40:15.190Z,100326.50
2022-09-24T07:42:49.679Z,100317.28
2022-09-24T07:45:29.146Z,100324.66
2022-09-24T07:48:03.094Z,100309.72
2022-09-24T07:50:35.354Z,100317.84
2022-09-24T07:53:06.881Z,100320.72
2022-09-24T07:55:41.465Z,100326.62
2022-09-24T07:58:15.757Z,100325.63
2022-09-24T08:00:48.434Z,100325.97
2022-09-24T08:03:20.715Z,100316.53
2022-09-24T08:05:51.385Z,100319.22
2022-09-24T08:08:22.991Z,100317.78
2022-09-24T08:10:51.938Z,100313.28
2022-09-24T08:13:27.756Z,100317.53
2022-09-24T08:16:02.213Z,100313.69
2022-09-24T08:18:33.427Z,100309.09
2022-09-24T08:21:07.195Z,100303.09
2022-09-24T08:23:42.303Z,100305.16
2022-09-24T08:26:11.974Z,100304.66
2022-09-24T08:28:44.727Z,100297.31
2022-09-24T08:31:15.167Z,100296.81
2022-09-24T08:33:51.468Z,100287.75
2022-09-24T08:36:21.222Z,100279.59
2022-09-24T08:38:55.623Z,100275.81
2022-09-24T08:41:44.433Z,100276.31
2022-09-24T08:44:48.062Z,100288.69
2022-09-24T08:47:46.164Z,100280.75
2022-09-24T08:50:24.164Z,100283.78
2022-09-24T08:53:14.031Z,100279.12
2022-09-24T08:55:48.000Z,100268.75
2022-09-24T08:58:25.507Z,100275.81
2022-09-24T09:01:16.161Z,100275.31
2022-09-24T09:03:57.510Z,100284.00
2022-09-24T09:06:54.824Z,100289.59
2022-09-24T09:09:44.952Z,100281.56
2022-09-24T09:12:23.714Z,100270.31
2022-09-24T09:15:04.568Z,100264.00
2022-09-24T09:17:51.425Z,100266.28
2022-09-24T09:20:21.800Z,100261.47
2022-09-24T09:22:53.471Z,100261.53
2022-09-24T09:25:30.519Z,100261.59
2022-09-24T09:28:03.975Z,100265.31
2022-09-24T09:30:44.163Z,100251.19
2022-09-24T09:33:42.210Z,100261.44
2022-09-24T09:36:33.977Z,100247.97
2022-09-24T09:39:22.490Z,100240.28
2022-09-24T09:42:23.780Z,100249.84
2022-09-24T09:44:56.694Z,100248.56
2022-09-24T09:47:31.555Z,100253.06
2022-09-24T09:50:09.474Z,100233.66
2022-09-24T09:52:42.780Z,100241.34
2022-09-24T09:55:28.880Z,100237.06
2022-09-24T09:58:17.846Z,100237.53
2022-09-24T10:00:50.009Z,100246.12
2022-09-24T10:03:44.790Z,100242.00
2022-09-24T10:06:27.504Z,100238.22
2022-09-24T10:09:17.902Z,100234.34
2022-09-24T10:11:48.503Z,100235.50
2022-09-24T10:14:38.629Z,100226.44
2022-09-24T10:17:11.233Z,100225.59
2022-09-24T10:19:41.243Z,100216.53
2022-09-24T10:22:22.595Z,100224.75
2022-09-24T10:24:57.022Z,100216.59
2022-09-24T10:27:33.612Z,100214.09
2022-09-24T10:30:34.740Z,100212.75
2022-09-24T10:33:06.598Z,100212.59
2022-09-24T10:35:39.836Z,100206.25
2022-09-24T10:38:25.717Z,100197.34
2022-09-24T10:40:58.312Z,100190.66
2022-09-24T10:43:28.650Z,100185.16
2022-09-24T10:46:10.298Z,100191.91
2022-09-24T10:48:46.751Z,100196.03
2022-09-24T10:51:53.033Z,100192.09
2022-09-24T10:54:28.636Z,100197.56
2022-09-24T10:57:26.445Z,100193.97
2022-09-24T11:00:10.028Z,100196.16
2022-09-24T11:03:00.330Z,100205.69
2022-09-24T11:05:39.144Z,100196.47
2022-09-24T11:08:23.232Z,100196.25
2022-09-24T11:11:10.174Z,100180.09
2022-09-24T11:13:57.286Z,100186.13
2022-09-24T11:16:49.776Z,100185.44
2022-09-24T11:19:19.777Z,100172.06
2022-09-24T11:22:11.087Z,100188.22
2022-09-24T11:25:04.020Z,100182.91
2022-09-24T11:28:06.138Z,100179.78
2022-09-24T11:31:03.125Z,100165.50
2022-09-24T11:33:54.184Z,100161.97
2022-09-24T11:36:48.430Z,100171.00
2022-09-24T11:39:29.815Z,100158.13
2022-09-24T11:42:07.633Z,100153.34
2022-09-24T11:44:37.120Z,100153.31
2022-09-24T11:47:12.485Z,100150.75
2022-09-24T11:49:57.910Z,100142.06
2022-09-24T11:52:41.367Z,100143.38
2022-09-24T11:55:27.129Z,100139.81
2022-09-24T11:58:17.018Z,100152.44
2022-09-24T12:00:59.427Z,100149.34
2022-09-24T12:03:42.523Z,100156.72
2022-09-24T12:06:34.155Z,100138.78
2022-09-24T12:09:37.779Z,100131.16
2022-09-24T12:12:21.779Z,100132.31
2022-09-24T12:15:06.224Z,100136.66
2022-09-24T12:17:41.592Z,100131.28
2022-09-24T12:20:20.272Z,100139.47
2022-09-24T12:22:50.294Z,100121.59
2022-09-24T12:25:20.157Z,100125.47
2022-09-24T12:27:49.022Z,100124.75
2022-09-24T12:30:57.727Z,100119.69
2022-09-24T12:33:33.487Z,100113.47
2022-09-24T12:36:34.808Z,100119.59
2022-09-24T12:39:07.685Z,100112.75
2022-09-24T12:41:37.448Z,100111.47
2022-09-24T12:44:10.229Z,100127.38
2022-09-24T12:46:46.475Z,100115.91
2022-09-24T12:49:27.664Z,100105.16
2022-09-24T12:51:57.147Z,100113.53
2022-09-24T12:54:28.566Z,100104.22
2022-09-24T12:57:07.348Z,100105.44
2022-09-24T12:59:50.662Z,100102.97
2022-09-24T13:02:24.041Z,100097.81
2022-09-24T13:05:13.852Z,100093.03
2022-09-24T13:07:42.056Z,100089.50
2022-09-24T13:10:18.741Z,100092.50
2022-09-24T13:12:47.684Z,100092.63
2022-09-24T13:15:28.603Z,100091.06
2022-09-24T13:18:03.076Z,100090.12
2022-09-24T13:20:34.360Z,100093.38
2022-09-24T13:23:32.273Z,100095.75
2022-09-24T13:26:05.457Z,100093.97
2022-09-24T13:28:52.462Z,100081.06
2022-09-24T13:31:21.572Z,100076.41
2022-09-24T13:33:52.821Z,100088.44
2022-09-24T13:36:33.541Z,100082.88
2022-09-24T13:39:30.960Z,100078.63
2022-09-24T13:42:16.077Z,100070.38
2022-09-24T13:44:47.889Z,100081.88
2022-09-24T13:47:32.079Z,100071.06
2022-09-24T13:50:23.794Z,100080.47
2022-09-24T13:53:07.719Z,100079.91
2022-09-24T13:55:47.279Z,100078.16
2022-09-24T13:58:33.177Z,100069.84
2022-09-24T14:01:25.208Z,100066.34
2022-09-24T14:04:00.542Z,100053.72
2022-09-24T14:06:37.694Z,100072.06
2022-09-24T14:09:25.028Z,100068.44
2022-09-24T14:11:56.849Z,100070.09
2022-09-24T14:14:28.184Z,100074.34
2022-09-24T14:17:09.877Z,100071.41
2022-09-24T14:19:39.566Z,100075.63
2022-09-24T14:22:15.463Z,100063.41
2022-09-24T14:25:06.598Z,100067.44
2022-09-24T14:27:40.159Z,100061.13
2022-09-24T14:30:17.464Z,100063.72
2022-09-24T14:32:45.665Z,100055.47
2022-09-24T14:35:23.050Z,100050.06
2022-09-24T14:37:55.150Z,100053.19
2022-09-24T14:40:23.982Z,100053.91
2022-09-24T14:43:00.504Z,100048.34
2022-09-24T14:45:34.950Z,100051.75
2022-09-24T14:48:18.388Z,100059.22
2022-09-24T14:50:47.823Z,100057.69
2022-09-24T14:53:34.254Z,100057.41
2022-09-24T14:56:28.327Z,100061.75
2022-09-24T14:59:00.700Z,100055.47
2022-09-24T15:01:33.664Z,100049.78
2022-09-24T15:04:08.424Z,100046.47
2022-09-24T15:06:37.847Z,100051.31
2022-09-24T15:09:31.592Z,100041.16
2022-09-24T15:12:10.735Z,100042.06
2022-09-24T15:14:39.847Z,100041.66
2022-09-24T15:17:11.039Z,100048.38
2022-09-24T15:19:43.189Z,100052.44
2022-09-24T15:22:12.282Z,100052.59
2022-09-24T15:24:40.163Z,100049.28
2022-09-24T15:27:19.924Z,100050.03
2022-09-24T15:29:48.179Z,100048.31
2022-09-24T15:32:18.264Z,100046.16
2022-09-24T15:34:47.378Z,100041.56
2022-09-24T15:37:19.782Z,100047.06
2022-09-24T15:39:49.304Z,100037.47
2022-09-24T15:42:24.148Z,100036.84
2022-09-24T15:44:54.805Z,100035.12
2022-09-24T15:47:23.707Z,100039.44
2022-09-24T15:49:51.887Z,100033.66
2022-09-24T15:52:32.160Z,100031.56
2022-09-24T15:55:02.289Z,100023.34
2022-09-24T15:57:30.627Z,100033.03
2022-09-24T15:59:58.839Z,100032.59
2022-09-24T16:02:32.172Z,100023.50
2022-09-24T16:05:04.217Z,100026.31
2022-09-24T16:07:33.261Z,100022.72
2022-09-24T16:10:01.765Z,100031.38
2022-09-24T16:12:30.267Z,100028.25
2022-09-24T16:15:00.806Z,100034.34
2022-09-24T16:17:29.387Z,100030.37
2022-09-24T16:19:58.578Z,100029.41
2022-09-24T16:22:26.661Z,100033.56
2022-09-24T16:24:54.821Z,100033.16
2022-09-24T16:27:23.191Z,100033.91
2022-09-24T16:29:51.942Z,100033.47
2022-09-24T16:32:19.941Z,100025.25
2022-09-24T16:34:48.732Z,100018.84
2022-09-24T16:37:18.475Z,100020.25
2022-09-24T16:39:46.460Z,100019.66
2022-09-24T16:42:14.703Z,100025.53
2022-09-24T16:44:43.078Z,100028.06
2022-09-24T16:47:11.737Z,100024.25
2022-09-24T16:49:39.847Z,100017.88
2022-09-24T16:52:07.678Z,100021.88
2022-09-24T16:54:36.979Z,100017.97
2022-09-24T16:57:09.014Z,100015.47
2022-09-24T16:59:37.884Z,100020.53
2022-09-24T17:02:05.961Z,100013.37
2022-09-24T17:04:34.591Z,100014.78
2022-09-24T17:07:03.818Z,100013.37
2022-09-24T17:09:50.318Z,100018.66
2022-09-24T17:12:19.411Z,100021.38
2022-09-24T17:14:46.981Z,100028.94
2022-09-24T17:17:15.034Z,100021.53
2022-09-24T17:19:45.455Z,100023.06
2022-09-24T17:22:13.173Z,100025.66
2022-09-24T17:24:41.271Z,100025.62
2022-09-24T17:27:09.477Z,100035.81
2022-09-24T17:29:38.151Z,100028.75
2022-09-24T17:32:06.446Z,100027.25
2022-09-24T17:34:35.993Z,100029.44
2022-09-24T17:37:04.194Z,100033.00
2022-09-24T17:39:32.620Z,100035.75
2022-09-24T17:42:02.611Z,100026.19
2022-09-24T17:44:30.826Z,100037.59
2022-09-24T17:47:00.799Z,100029.12
2022-09-24T17:49:29.517Z,100030.00
2022-09-24T17:52:01.564Z,100031.22
2022-09-24T17:54:29.619Z,100028.03
2022-09-24T17:56:58.422Z,100031.28
2022-09-24T17:59:27.151Z,100026.50
2022-09-24T18:01:56.275Z,100029.03
2022-09-24T18:04:27.442Z,100027.94
2022-09-24T18:06:55.614Z,100038.22
2022-09-24T18:09:24.203Z,100038.06
2022-09-24T18:11:52.828Z,100046.16
2022-09-24T18:14:22.875Z,100047.34
2022-09-24T18:16:51.787Z,100039.34
2022-09-24T18:19:20.520Z,100038.06
2022-09-24T18:21:51.115Z,100039.59
2022-09-24T18:24:20.195Z,100043.50
2022-09-24T18:26:51.499Z,100042.12
2022-09-24T18:29:21.189Z,100043.13
2022-09-24T18:31:51.788Z,100048.50
2022-09-24T18:34:20.281Z,100044.47
2022-09-24T18:36:48.285Z,100042.25
2022-09-24T18:39:21.931Z,100040.63
2022-09-24T18:41:53.319Z,100038.13
2022-09-24T18:44:22.121Z,100042.56
2022-09-24T18:46:51.173Z,100042.62
2022-09-24T18:49:20.036Z,100039.34
2022-09-24T18:51:49.142Z,100053.25
2022-09-24T18:54:18.404Z,100052.69
2022-09-24T18:56:48.288Z,100056.28
2022-09-24T18:59:20.056Z,100055.81
2022-09-24T19:01:50.841Z,100061.97
2022-09-24T19:04:19.591Z,100054.69
2022-09-24T19:06:48.675Z,100061.44
2022-09-24T19:09:18.958Z,100060.72
2022-09-24T19:11:48.884Z,100054.34
2022-09-24T19:14:18.537Z,100049.88
2022-09-24T19:16:47.441Z,100048.91
2022-09-24T19:19:16.373Z,100054.84
2022-09-24T19:21:45.738Z,100052.28
2022-09-24T19:24:13.295Z,100058.09
2022-09-24T19:26:41.200Z,100045.72
2022-09-24T19:29:10.086Z,100052.28
2022-09-24T19:31:41.835Z,100052.06
2022-09-24T19:34:13.004Z,100043.69
2022-09-24T19:36:45.030Z,100041.91
2022-09-24T19:39:16.369Z,100050.59
2022-09-24T19:41:45.093Z,100044.63
2022-09-24T19:44:16.772Z,100039.12
2022-09-24T19:46:45.543Z,100043.87
2022-09-24T19:49:15.206Z,100040.06
2022-09-24T19:51:43.631Z,100042.25
2022-09-24T19:54:12.923Z,100039.50
2022-09-24T19:56:41.606Z,100048.13
2022-09-24T19:59:10.007Z,100048.19
2022-09-24T20:01:38.362Z,100042.50
2022-09-24T20:04:07.685Z,100041.53
2022-09-24T20:06:37.115Z,100042.31
2022-09-24T20:09:05.526Z,100047.19
2022-09-24T20:11:35.490Z,100044.41
2022-09-24T20:14:06.263Z,100047.34
2022-09-24T20:16:35.484Z,100046.59
2022-09-24T20:19:05.284Z,100047.19
2022-09-24T20:21:39.279Z,100039.12
2022-09-24T20:24:12.699Z,100038.31
2022-09-24T20:27:01.935Z,100037.84
2022-09-24T20:29:31.610Z,100036.78
2022-09-24T20:32:01.428Z,100032.09
2022-09-24T20:34:34.254Z,100038.94
2022-09-24T20:37:06.156Z,100034.97
2022-09-24T20:39:35.122Z,100034.34
2022-09-24T20:42:06.202Z,100027.37
2022-09-24T20:44:35.541Z,100028.81
2022-09-24T20:47:04.229Z,100039.12
2022-09-24T20:49:33.370Z,100036.22
2022-09-24T20:52:03.327Z,100027.81
2022-09-24T20:54:33.714Z,100029.03
2022-09-24T20:57:01.984Z,100025.06
2022-09-24T20:59:30.928Z,100023.25
2022-09-24T21:02:04.251Z,100026.72
2022-09-24T21:04:36.847Z,100032.97
2022-09-24T21:07:05.707Z,100030.87
2022-09-24T21:09:34.032Z,100028.69
2022-09-24T21:12:03.723Z,100032.78
2022-09-24T21:14:35.561Z,100023.84
2022-09-24T21:17:03.672Z,100035.41
2022-09-24T21:19:35.741Z,100027.00
2022-09-24T21:22:03.513Z,100026.94
2022-09-24T21:24:32.130Z,100033.91
2022-09-24T21:27:00.160Z,100032.75
2022-09-24T21:29:27.856Z,100028.31
2022-09-24T21:31:55.943Z,100028.59
2022-09-24T21:34:24.263Z,100028.75
2022-09-24T21:36:53.242Z,100031.09
2022-09-24T21:39:24.338Z,100028.47
2022-09-24T21:41:59.564Z,100032.19
2022-09-24T21:44:34.194Z,100029.75
2022-09-24T21:47:01.927Z,100028.69
2022-09-24T21:49:33.691Z,100021.03
2022-09-24T21:52:05.044Z,100031.53
2022-09-24T21:54:34.096Z,100034.41
2022-09-24T21:57:02.425Z,100039.41
2022-09-24T21:59:50.159Z,100035.16
2022-09-24T22:02:20.340Z,100031.00
2022-09-24T22:04:51.000Z,100019.31
2022-09-24T22:07:19.484Z,100022.75
2022-09-24T22:09:50.192Z,100031.47
2022-09-24T22:12:22.998Z,100027.41
2022-09-24T22:14:53.278Z,100029.84
2022-09-24T22:17:26.401Z,100020.56
2022-09-24T22:19:58.110Z,100018.53
2022-09-24T22:22:28.511Z,100027.66
2022-09-24T22:25:01.113Z,100014.00
2022-09-24T22:27:32.211Z,100010.53
2022-09-24T22:30:03.239Z,100018.94
2022-09-24T22:32:38.192Z,100013.25
2022-09-24T22:35:29.928Z,100018.50
2022-09-24T22:38:01.042Z,100015.38
2022-09-24T22:40:31.045Z,100014.94
2022-09-24T22:43:05.444Z,100019.66
2022-09-24T22:45:35.810Z,100013.37
2022-09-24T22:48:07.943Z,100008.00
2022-09-24T22:50:39.123Z,100005.69
2022-09-24T22:53:10.557Z,100008.97
2022-09-24T22:55:40.141Z,100010.41
2022-09-24T22:58:13.953Z,100007.50
2022-09-24T23:00:44.419Z,100000.13
2022-09-24T23:03:15.015Z,100000.91
2022-09-24T23:05:46.322Z,99999.44
2022-09-24T23:08:18.169Z,99996.06
2022-09-24T23:10:48.069Z,100000.47
2022-09-24T23:13:21.082Z,99996.69
2022-09-24T23:15:55.376Z,100005.12
2022-09-24T23:18:27.961Z,100001.53
2022-09-24T23:20:58.315Z,100002.28
2022-09-24T23:23:28.685Z,100005.25
2022-09-24T23:26:14.250Z,100004.81
2022-09-24T23:28:53.608Z,100009.41
2022-09-24T23:31:29.736Z,100010.13
2022-09-24T23:34:02.150Z,99998.91
2022-09-24T23:36:34.194Z,100001.22
2022-09-24T23:39:06.407Z,100000.41
2022-09-24T23:41:37.789Z,100002.97
2022-09-24T23:44:11.944Z,100001.66
2022-09-24T23:46:42.106Z,99996.34
2022-09-24T23:49:12.964Z,99987.88
2022-09-24T23:51:44.817Z,99992.53
2022-09-24T23:54:16.471Z,100000.75
2022-09-24T23:56:46.617Z,99995.81
2022-09-24T23:59:18.913Z,100001.31
